createdAt,value
2022-08-26T00:01:52.220Z,1.52
2022-08-26T00:04:19.626Z,2.15
2022-08-26T00:06:46.952Z,1.70
2022-08-26T00:09:20.496Z,1.50
2022-08-26T00:11:47.642Z,1.55
2022-08-26T00:14:15.804Z,1.73
2022-08-26T00:16:47.536Z,1.17
2022-08-26T00:19:19.574Z,1.80
2022-08-26T00:21:48.524Z,1.40
2022-08-26T00:24:16.592Z,1.23
2022-08-26T00:26:45.595Z,1.52
2022-08-26T00:29:13.942Z,1.10
2022-08-26T00:31:42.307Z,1.27
2022-08-26T00:34:11.329Z,1.75
2022-08-26T00:36:40.658Z,1.95
2022-08-26T00:39:08.221Z,1.40
2022-08-26T00:41:36.518Z,1.33
2022-08-26T00:44:04.258Z,1.20
2022-08-26T00:46:34.289Z,1.20
2022-08-26T00:49:12.515Z,1.42
2022-08-26T00:51:54.164Z,1.10
2022-08-26T00:54:23.435Z,1.48
2022-08-26T00:57:01.593Z,1.42
2022-08-26T00:59:29.368Z,1.77
2022-08-26T01:02:03.502Z,1.50
2022-08-26T01:04:31.544Z,1.08
2022-08-26T01:06:59.515Z,1.20
2022-08-26T01:09:27.366Z,1.15
2022-08-26T01:11:56.169Z,1.10
2022-08-26T01:14:25.098Z,1.23
2022-08-26T01:16:52.502Z,1.30
2022-08-26T01:19:40.066Z,1.10
2022-08-26T01:22:10.730Z,1.48
2022-08-26T01:24:39.357Z,1.40
2022-08-26T01:27:08.546Z,1.52
2022-08-26T01:29:37.545Z,1.20
2022-08-26T01:32:05.799Z,1.55
2022-08-26T01:34:37.965Z,1.20
2022-08-26T01:37:11.696Z,1.25
2022-08-26T01:39:43.992Z,1.35
2022-08-26T01:42:14.109Z,1.30
2022-08-26T01:44:46.283Z,1.45
2022-08-26T01:47:15.277Z,1.30
2022-08-26T01:49:46.793Z,1.30
2022-08-26T01:52:18.913Z,1.33
2022-08-26T01:54:50.586Z,1.52
2022-08-26T01:57:19.462Z,1.55
2022-08-26T01:59:47.015Z,1.48
2022-08-26T02:02:14.266Z,1.95
2022-08-26T02:04:46.615Z,1.42
2022-08-26T02:07:18.544Z,1.23
2022-08-26T02:09:49.608Z,1.00
2022-08-26T02:12:18.015Z,1.33
2022-08-26T02:14:50.283Z,1.77
2022-08-26T02:17:19.256Z,1.20
2022-08-26T02:19:49.738Z,1.30
2022-08-26T02:22:20.221Z,1.20
2022-08-26T02:24:55.849Z,1.30
2022-08-26T02:27:26.455Z,1.60
2022-08-26T02:30:00.970Z,1.40
2022-08-26T02:32:29.778Z,1.85
2022-08-26T02:34:57.142Z,1.23
2022-08-26T02:37:28.753Z,1.67
2022-08-26T02:39:56.137Z,1.20
2022-08-26T02:42:24.414Z,1.17
2022-08-26T02:44:52.152Z,1.52
2022-08-26T02:47:19.672Z,1.25
2022-08-26T02:49:52.143Z,1.63
2022-08-26T02:52:19.611Z,1.60
2022-08-26T02:54:47.049Z,1.70
2022-08-26T02:57:18.393Z,1.20
2022-08-26T02:59:45.731Z,1.48
2022-08-26T03:02:13.219Z,1.33
2022-08-26T03:04:40.773Z,1.38
2022-08-26T03:07:25.921Z,1.45
2022-08-26T03:09:53.093Z,1.10
2022-08-26T03:12:20.579Z,1.45
2022-08-26T03:14:48.167Z,1.95
2022-08-26T03:17:16.177Z,1.38
2022-08-26T03:19:43.362Z,1.50
2022-08-26T03:22:11.986Z,1.38
2022-08-26T03:24:45.992Z,1.50
2022-08-26T03:27:14.373Z,1.25
2022-08-26T03:30:00.704Z,1.15
2022-08-26T03:32:28.428Z,1.42
2022-08-26T03:34:56.557Z,1.23
2022-08-26T03:37:23.940Z,1.40
2022-08-26T03:39:51.301Z,1.13
2022-08-26T03:42:22.140Z,1.00
2022-08-26T03:44:49.867Z,1.05
2022-08-26T03:47:17.210Z,1.17
2022-08-26T03:49:44.526Z,1.23
2022-08-26T03:52:14.719Z,1.00
2022-08-26T03:54:42.024Z,1.50
2022-08-26T03:57:10.895Z,1.30
2022-08-26T03:59:38.279Z,1.27
2022-08-26T04:02:11.642Z,1.30
2022-08-26T04:04:39.780Z,1.10
2022-08-26T04:07:07.568Z,1.17
2022-08-26T04:09:35.422Z,1.10
2022-08-26T04:12:09.246Z,1.08
2022-08-26T04:14:43.119Z,1.30
2022-08-26T04:17:11.987Z,1.10
2022-08-26T04:19:39.555Z,1.10
2022-08-26T04:22:07.608Z,1.20
2022-08-26T04:24:34.906Z,1.13
2022-08-26T04:27:05.767Z,1.70
2022-08-26T04:29:35.609Z,1.00
2022-08-26T04:32:03.241Z,1.30
2022-08-26T04:34:31.088Z,1.17
2022-08-26T04:36:59.061Z,1.20
2022-08-26T04:39:27.646Z,1.40
2022-08-26T04:41:55.580Z,1.45
2022-08-26T04:44:25.716Z,1.38
2022-08-26T04:46:53.041Z,1.50
2022-08-26T04:49:20.950Z,1.17
2022-08-26T04:51:48.986Z,1.23
2022-08-26T04:54:17.464Z,1.20
2022-08-26T04:56:47.288Z,1.30
2022-08-26T04:59:18.161Z,1.15
2022-08-26T05:01:47.886Z,1.10
2022-08-26T05:04:16.248Z,1.30
2022-08-26T05:06:46.184Z,1.40
2022-08-26T05:09:15.257Z,1.20
2022-08-26T05:11:42.958Z,1.20
2022-08-26T05:14:10.461Z,1.00
2022-08-26T05:16:40.403Z,1.00
2022-08-26T05:19:08.703Z,0.93
2022-08-26T05:21:36.555Z,1.00
2022-08-26T05:24:06.719Z,1.13
2022-08-26T05:26:35.078Z,1.10
2022-08-26T05:29:02.459Z,1.25
2022-08-26T05:31:32.030Z,1.00
2022-08-26T05:34:00.332Z,1.23
2022-08-26T05:36:33.509Z,1.33
2022-08-26T05:39:01.806Z,1.10
2022-08-26T05:41:34.536Z,1.20
2022-08-26T05:44:05.749Z,1.27
2022-08-26T05:46:33.070Z,0.90
2022-08-26T05:49:02.057Z,1.35
2022-08-26T05:51:30.870Z,1.20
2022-08-26T05:53:58.730Z,1.80
2022-08-26T05:56:27.741Z,1.30
2022-08-26T05:59:02.687Z,0.90
2022-08-26T06:01:31.921Z,1.00
2022-08-26T06:04:03.498Z,1.10
2022-08-26T06:06:31.883Z,1.55
2022-08-26T06:09:00.666Z,1.42
2022-08-26T06:11:28.949Z,1.50
2022-08-26T06:14:03.084Z,1.52
2022-08-26T06:16:31.517Z,1.40
2022-08-26T06:18:58.936Z,1.40
2022-08-26T06:21:31.080Z,1.35
2022-08-26T06:24:18.511Z,1.38
2022-08-26T06:26:53.053Z,1.30
2022-08-26T06:29:24.133Z,1.38
2022-08-26T06:31:52.608Z,1.00
2022-08-26T06:34:20.250Z,1.38
2022-08-26T06:36:47.852Z,1.10
2022-08-26T06:39:15.961Z,1.08
2022-08-26T06:41:45.009Z,1.48
2022-08-26T06:44:14.311Z,1.30
2022-08-26T06:46:42.858Z,1.20
2022-08-26T06:49:12.641Z,1.25
2022-08-26T06:51:40.937Z,1.20
2022-08-26T06:54:08.968Z,0.88
2022-08-26T06:56:39.437Z,1.10
2022-08-26T06:59:07.713Z,1.20
2022-08-26T07:01:36.558Z,1.48
2022-08-26T07:04:07.853Z,1.20
2022-08-26T07:06:39.124Z,1.20
2022-08-26T07:09:09.794Z,1.20
2022-08-26T07:11:38.502Z,1.20
2022-08-26T07:14:06.182Z,1.15
2022-08-26T07:16:33.900Z,1.30
2022-08-26T07:19:11.461Z,1.20
2022-08-26T07:21:41.527Z,1.10
2022-08-26T07:24:10.520Z,1.10
2022-08-26T07:26:38.639Z,1.00
2022-08-26T07:29:06.904Z,0.90
2022-08-26T07:31:39.479Z,1.63
2022-08-26T07:34:10.566Z,0.95
2022-08-26T07:36:37.925Z,1.17
2022-08-26T07:39:05.979Z,1.10
2022-08-26T07:41:34.196Z,1.42
2022-08-26T07:44:01.666Z,0.90
2022-08-26T07:46:30.453Z,1.25
2022-08-26T07:48:58.133Z,0.85
2022-08-26T07:51:26.270Z,1.00
2022-08-26T07:53:54.799Z,1.00
2022-08-26T07:56:23.408Z,1.08
2022-08-26T07:58:52.201Z,1.30
2022-08-26T08:01:20.632Z,1.25
2022-08-26T08:03:51.573Z,1.30
2022-08-26T08:06:20.120Z,0.95
2022-08-26T08:08:48.068Z,1.13
2022-08-26T08:13:47.968Z,0.90
2022-08-26T08:16:16.483Z,1.00
2022-08-26T08:18:44.254Z,1.15
2022-08-26T08:21:21.709Z,1.20
2022-08-26T08:23:49.458Z,1.00
2022-08-26T08:26:16.971Z,1.35
2022-08-26T08:28:47.951Z,1.05
2022-08-26T08:31:38.595Z,1.15
2022-08-26T08:34:07.786Z,0.95
2022-08-26T08:36:35.954Z,0.95
2022-08-26T08:39:07.906Z,1.20
2022-08-26T08:41:49.139Z,0.73
2022-08-26T08:44:19.979Z,1.10
2022-08-26T08:46:56.238Z,1.33
2022-08-26T08:49:26.012Z,1.05
2022-08-26T08:51:57.418Z,1.35
2022-08-26T08:54:30.094Z,1.33
2022-08-26T08:57:02.938Z,1.02
2022-08-26T08:59:34.997Z,1.35
2022-08-26T09:02:24.347Z,1.15
2022-08-26T09:05:23.886Z,0.90
2022-08-26T09:08:29.577Z,1.30
2022-08-26T09:10:59.630Z,1.10
2022-08-26T09:13:27.519Z,1.10
2022-08-26T09:15:54.736Z,1.25
2022-08-26T09:18:28.014Z,1.20
2022-08-26T09:21:08.961Z,1.00
2022-08-26T09:23:38.669Z,0.90
2022-08-26T09:26:17.525Z,1.20
2022-08-26T09:28:47.595Z,1.02
2022-08-26T09:31:25.692Z,0.70
2022-08-26T09:34:13.310Z,0.80
2022-08-26T09:36:55.441Z,0.65
2022-08-26T09:39:28.225Z,0.80
2022-08-26T09:42:10.207Z,1.05
2022-08-26T09:44:57.734Z,1.05
2022-08-26T09:47:30.262Z,0.73
2022-08-26T09:50:03.507Z,1.10
2022-08-26T09:52:31.557Z,0.85
2022-08-26T09:55:19.565Z,0.85
2022-08-26T09:57:51.631Z,0.73
2022-08-26T10:00:38.856Z,0.80
2022-08-26T10:03:17.332Z,1.00
2022-08-26T10:05:44.661Z,1.70
2022-08-26T10:08:20.983Z,0.98
2022-08-26T10:10:53.493Z,0.90
2022-08-26T10:13:53.392Z,1.10
2022-08-26T10:16:20.706Z,0.90
2022-08-26T10:18:56.798Z,1.50
2022-08-26T10:21:34.563Z,0.98
2022-08-26T10:24:05.247Z,0.85
2022-08-26T10:26:39.892Z,0.70
2022-08-26T10:29:19.925Z,0.60
2022-08-26T10:31:52.142Z,1.00
2022-08-26T10:34:21.244Z,1.00
2022-08-26T10:37:14.896Z,1.02
2022-08-26T10:39:46.233Z,1.30
2022-08-26T10:42:35.436Z,1.05
2022-08-26T10:45:25.557Z,0.82
2022-08-26T10:47:55.258Z,1.15
2022-08-26T10:50:25.632Z,1.60
2022-08-26T10:53:08.755Z,1.23
2022-08-26T10:55:36.171Z,1.23
2022-08-26T10:58:13.994Z,1.20
2022-08-26T11:01:23.357Z,1.40
2022-08-26T11:04:06.495Z,1.20
2022-08-26T11:06:34.089Z,2.25
2022-08-26T11:11:40.589Z,1.20
2022-08-26T11:14:11.840Z,1.10
2022-08-26T11:16:47.408Z,1.35
2022-08-26T11:19:57.069Z,1.30
2022-08-26T11:22:26.814Z,1.58
2022-08-26T11:24:57.105Z,1.20
2022-08-26T11:27:24.877Z,1.10
2022-08-26T11:29:59.167Z,1.00
2022-08-26T11:32:46.778Z,1.35
2022-08-26T11:35:19.359Z,1.20
2022-08-26T11:37:49.454Z,1.55
2022-08-26T11:40:19.226Z,1.42
2022-08-26T11:42:52.406Z,1.27
2022-08-26T11:45:23.638Z,1.50
2022-08-26T11:47:50.860Z,1.30
2022-08-26T11:50:20.508Z,1.33
2022-08-26T11:52:51.559Z,1.38
2022-08-26T11:55:19.139Z,0.90
2022-08-26T11:57:48.218Z,1.52
2022-08-26T12:00:22.283Z,1.92
2022-08-26T12:02:55.665Z,1.40
2022-08-26T12:05:31.129Z,1.65
2022-08-26T12:08:01.091Z,1.70
2022-08-26T12:10:30.116Z,1.63
2022-08-26T12:12:59.319Z,1.40
2022-08-26T12:15:29.519Z,1.52
2022-08-26T12:18:00.374Z,1.50
2022-08-26T12:22:54.697Z,1.70
2022-08-26T12:25:23.972Z,1.60
2022-08-26T12:27:54.799Z,1.00
2022-08-26T12:30:23.982Z,1.35
2022-08-26T12:32:57.947Z,1.50
2022-08-26T12:35:26.898Z,1.50
2022-08-26T12:37:57.773Z,1.73
2022-08-26T12:40:27.843Z,1.58
2022-08-26T12:42:56.643Z,0.90
2022-08-26T12:45:28.853Z,1.10
2022-08-26T12:47:58.613Z,1.60
2022-08-26T12:50:33.263Z,1.92
2022-08-26T12:53:07.095Z,1.40
2022-08-26T12:55:37.597Z,1.40
2022-08-26T12:58:10.860Z,1.25
2022-08-26T13:00:40.260Z,1.30
2022-08-26T13:03:26.275Z,1.23
2022-08-26T13:05:54.461Z,1.60
2022-08-26T13:08:28.638Z,1.15
2022-08-26T13:11:10.376Z,1.85
2022-08-26T13:13:37.943Z,1.15
2022-08-26T13:16:08.999Z,1.77
2022-08-26T13:18:37.439Z,1.48
2022-08-26T13:21:17.409Z,1.15
2022-08-26T13:23:44.746Z,1.65
2022-08-26T13:26:12.209Z,1.75
2022-08-26T13:28:39.826Z,0.90
2022-08-26T13:31:07.169Z,0.93
2022-08-26T13:33:36.678Z,1.42
2022-08-26T13:36:08.869Z,1.40
2022-08-26T13:38:36.578Z,1.10
2022-08-26T13:41:04.928Z,1.35
2022-08-26T13:43:32.584Z,1.10
2022-08-26T13:46:01.642Z,1.20
2022-08-26T13:48:29.590Z,1.55
2022-08-26T13:50:57.331Z,1.20
2022-08-26T13:53:25.061Z,1.08
2022-08-26T13:55:52.687Z,1.20
2022-08-26T13:58:22.813Z,1.30
2022-08-26T14:00:52.830Z,1.20
2022-08-26T14:03:20.367Z,1.35
2022-08-26T14:05:47.625Z,1.48
2022-08-26T14:08:14.995Z,1.50
2022-08-26T14:10:42.224Z,1.00
2022-08-26T14:13:09.716Z,1.50
2022-08-26T14:15:38.443Z,1.23
2022-08-26T14:18:07.754Z,1.17
2022-08-26T14:20:37.032Z,1.52
2022-08-26T14:23:20.628Z,1.77
2022-08-26T14:25:48.958Z,1.40
2022-08-26T14:28:16.394Z,1.27
2022-08-26T14:30:44.703Z,1.20
2022-08-26T14:33:14.168Z,1.58
2022-08-26T14:35:47.375Z,1.40
2022-08-26T14:38:17.410Z,1.48
2022-08-26T14:40:45.297Z,1.00
2022-08-26T14:43:15.375Z,1.60
2022-08-26T14:45:44.011Z,1.63
2022-08-26T14:48:11.800Z,1.58
2022-08-26T14:50:39.147Z,1.90
2022-08-26T14:53:25.236Z,1.48
2022-08-26T14:55:52.632Z,1.33
2022-08-26T14:58:19.881Z,1.90
2022-08-26T15:00:47.268Z,1.40
2022-08-26T15:05:48.046Z,1.50
2022-08-26T15:08:15.960Z,1.60
2022-08-26T15:10:43.673Z,1.80
2022-08-26T15:13:11.130Z,1.63
2022-08-26T15:15:38.726Z,1.45
2022-08-26T15:18:06.264Z,1.20
2022-08-26T15:23:06.017Z,1.13
2022-08-26T15:25:33.644Z,1.70
2022-08-26T15:28:01.503Z,1.50
2022-08-26T15:30:28.833Z,1.52
2022-08-26T15:32:56.178Z,1.80
2022-08-26T15:35:23.398Z,2.03
2022-08-26T15:40:19.298Z,1.77
2022-08-26T15:42:57.519Z,1.73
2022-08-26T15:45:28.722Z,1.73
2022-08-26T15:48:01.506Z,1.70
2022-08-26T15:50:30.232Z,1.40
2022-08-26T15:52:59.621Z,1.40
2022-08-26T15:55:26.898Z,1.67
2022-08-26T15:57:55.895Z,1.20
2022-08-26T16:00:24.042Z,1.50
2022-08-26T16:02:51.897Z,1.63
2022-08-26T16:05:19.234Z,1.80
2022-08-26T16:07:46.635Z,1.60
2022-08-26T16:10:13.866Z,1.60
2022-08-26T16:12:41.359Z,1.35
2022-08-26T16:15:08.951Z,1.63
2022-08-26T16:17:36.300Z,1.70
2022-08-26T16:20:03.685Z,1.77
2022-08-26T16:22:31.712Z,1.65
2022-08-26T16:25:00.586Z,1.63
2022-08-26T16:27:28.058Z,2.38
2022-08-26T16:29:55.411Z,1.77
2022-08-26T16:32:30.671Z,1.50
2022-08-26T16:34:58.434Z,2.22
2022-08-26T16:37:25.876Z,1.73
2022-08-26T16:39:53.217Z,1.83
2022-08-26T16:42:20.706Z,1.80
2022-08-26T16:44:48.221Z,1.60
2022-08-26T16:47:23.250Z,1.60
2022-08-26T16:49:51.541Z,1.67
2022-08-26T16:52:19.006Z,1.63
2022-08-26T16:54:46.215Z,1.58
2022-08-26T16:57:13.854Z,1.67
2022-08-26T16:59:41.715Z,1.77
2022-08-26T17:02:10.849Z,1.65
2022-08-26T17:04:38.924Z,2.20
2022-08-26T17:07:09.474Z,1.70
2022-08-26T17:09:37.705Z,1.60
2022-08-26T17:12:08.890Z,1.42
2022-08-26T17:14:36.247Z,1.60
2022-08-26T17:17:05.680Z,1.58
2022-08-26T17:19:36.390Z,1.40
2022-08-26T17:22:11.154Z,1.80
2022-08-26T17:24:38.710Z,1.77
2022-08-26T17:27:06.102Z,1.88
2022-08-26T17:29:33.718Z,1.70
2022-08-26T17:32:01.084Z,1.50
2022-08-26T17:34:28.468Z,1.50
2022-08-26T17:36:59.417Z,1.75
2022-08-26T17:39:26.800Z,1.63
2022-08-26T17:41:54.188Z,1.60
2022-08-26T17:44:21.554Z,1.55
2022-08-26T17:46:48.883Z,2.00
2022-08-26T17:49:16.231Z,1.88
2022-08-26T17:51:43.615Z,1.90
2022-08-26T17:54:10.775Z,1.60
2022-08-26T17:56:38.318Z,1.70
2022-08-26T17:59:05.700Z,2.28
2022-08-26T18:01:34.874Z,1.95
2022-08-26T18:04:02.041Z,2.45
2022-08-26T18:06:30.884Z,1.50
2022-08-26T18:08:58.228Z,2.05
2022-08-26T18:11:25.750Z,1.92
2022-08-26T18:13:53.373Z,1.60
2022-08-26T18:16:21.015Z,2.00
2022-08-26T18:18:48.748Z,1.80
2022-08-26T18:21:17.699Z,1.98
2022-08-26T18:23:46.941Z,1.63
2022-08-26T18:26:37.098Z,1.80
2022-08-26T18:29:05.322Z,1.63
2022-08-26T18:31:32.903Z,1.60
2022-08-26T18:34:00.858Z,1.70
2022-08-26T18:36:29.477Z,1.73
2022-08-26T18:38:57.153Z,2.40
2022-08-26T18:41:25.813Z,2.10
2022-08-26T18:43:54.042Z,1.95
2022-08-26T18:46:27.169Z,1.73
2022-08-26T18:48:55.780Z,1.95
2022-08-26T18:51:27.849Z,1.77
2022-08-26T18:53:55.081Z,1.70
2022-08-26T18:56:22.741Z,1.73
2022-08-26T18:58:49.917Z,1.67
2022-08-26T19:01:17.690Z,1.73
2022-08-26T19:03:46.837Z,1.90
2022-08-26T19:06:18.694Z,1.70
2022-08-26T19:08:46.575Z,1.80
2022-08-26T19:11:31.648Z,2.10
2022-08-26T19:14:03.187Z,1.60
2022-08-26T19:16:31.234Z,2.58
2022-08-26T19:18:58.873Z,1.92
2022-08-26T19:21:27.071Z,1.75
2022-08-26T19:23:59.360Z,2.30
2022-08-26T19:26:27.410Z,1.90
2022-08-26T19:28:54.868Z,1.92
2022-08-26T19:31:22.123Z,2.00
2022-08-26T19:33:49.454Z,1.77
2022-08-26T19:36:19.837Z,2.00
2022-08-26T19:38:47.586Z,1.75
2022-08-26T19:41:16.154Z,1.70
2022-08-26T19:43:43.411Z,2.15
2022-08-26T19:46:15.286Z,1.90
2022-08-26T19:48:44.496Z,2.10
2022-08-26T19:51:15.683Z,2.00
2022-08-26T19:53:46.665Z,1.83
2022-08-26T19:58:43.844Z,2.10
2022-08-26T20:01:11.766Z,1.83
2022-08-26T20:03:39.480Z,2.10
2022-08-26T20:06:07.253Z,1.75
2022-08-26T20:08:35.274Z,1.65
2022-08-26T20:11:05.368Z,1.67
2022-08-26T20:13:33.013Z,2.27
2022-08-26T20:16:01.528Z,2.15
2022-08-26T20:18:47.615Z,2.00
2022-08-26T20:21:27.444Z,2.45
2022-08-26T20:23:56.331Z,2.15
2022-08-26T20:26:23.827Z,2.10
2022-08-26T20:28:51.349Z,1.80
2022-08-26T20:31:19.502Z,2.28
2022-08-26T20:33:47.219Z,2.35
2022-08-26T20:36:15.540Z,2.25
2022-08-26T20:38:43.181Z,1.90
2022-08-26T20:41:11.068Z,2.00
2022-08-26T20:43:38.408Z,2.20
2022-08-26T20:46:10.602Z,2.03
2022-08-26T20:48:46.473Z,1.88
2022-08-26T20:51:13.778Z,2.10
2022-08-26T20:53:41.435Z,1.73
2022-08-26T20:56:09.673Z,1.90
2022-08-26T20:58:37.217Z,2.20
2022-08-26T21:01:07.750Z,2.08
2022-08-26T21:06:03.900Z,1.75
2022-08-26T21:08:33.115Z,1.80
2022-08-26T21:11:01.863Z,1.70
2022-08-26T21:13:39.186Z,1.70
2022-08-26T21:16:17.172Z,1.60
2022-08-26T21:18:44.426Z,1.70
2022-08-26T21:21:12.104Z,2.17
2022-08-26T21:23:41.653Z,1.95
2022-08-26T21:26:10.183Z,2.00
2022-08-26T21:28:39.535Z,1.42
2022-08-26T21:31:07.603Z,1.60
2022-08-26T21:33:35.149Z,1.80
2022-08-26T21:36:05.311Z,2.10
2022-08-26T21:38:33.654Z,3.17
2022-08-26T21:41:02.357Z,2.10
2022-08-26T21:43:36.742Z,1.90
2022-08-26T21:46:14.499Z,1.80
2022-08-26T21:48:50.371Z,1.80
2022-08-26T21:51:19.361Z,2.20
2022-08-26T21:53:48.761Z,2.72
2022-08-26T21:56:18.074Z,2.08
2022-08-26T21:58:45.856Z,1.90
2022-08-26T22:01:14.701Z,1.90
2022-08-26T22:03:47.500Z,1.95
2022-08-26T22:06:16.752Z,1.70
2022-08-26T22:08:44.367Z,2.00
2022-08-26T22:11:11.951Z,1.65
2022-08-26T22:13:41.411Z,2.17
2022-08-26T22:16:10.508Z,2.05
2022-08-26T22:18:38.771Z,2.17
2022-08-26T22:21:10.649Z,1.90
2022-08-26T22:23:39.035Z,2.10
2022-08-26T22:26:07.418Z,2.10
2022-08-26T22:28:39.357Z,1.80
2022-08-26T22:31:11.913Z,1.90
2022-08-26T22:33:40.229Z,2.15
2022-08-26T22:36:07.737Z,1.98
2022-08-26T22:38:35.472Z,1.60
2022-08-26T22:41:06.559Z,1.90
2022-08-26T22:43:37.146Z,1.42
2022-08-26T22:46:09.475Z,1.67
2022-08-26T22:48:38.393Z,1.63
2022-08-26T22:51:05.912Z,2.22
2022-08-26T22:53:35.269Z,2.63
2022-08-26T22:56:05.919Z,2.28
2022-08-26T22:58:33.274Z,2.70
2022-08-26T23:01:00.715Z,2.45
2022-08-26T23:03:27.999Z,1.80
2022-08-26T23:05:56.086Z,1.90
2022-08-26T23:08:25.007Z,1.65
2022-08-26T23:10:53.200Z,2.40
2022-08-26T23:13:20.781Z,1.85
2022-08-26T23:15:47.991Z,2.20
2022-08-26T23:18:15.734Z,1.67
2022-08-26T23:20:43.022Z,2.83
2022-08-26T23:23:10.456Z,3.47
2022-08-26T23:25:37.638Z,2.63
2022-08-26T23:28:05.490Z,2.78
2022-08-26T23:30:34.653Z,2.10
2022-08-26T23:33:01.997Z,2.10
2022-08-26T23:35:29.932Z,2.13
2022-08-26T23:37:57.839Z,1.95
2022-08-26T23:40:35.205Z,2.30
2022-08-26T23:43:03.977Z,2.05
2022-08-26T23:45:32.021Z,1.85
2022-08-26T23:47:59.478Z,2.42
2022-08-26T23:50:47.655Z,2.10
2022-08-26T23:53:19.465Z,1.88
2022-08-26T23:55:51.279Z,2.10
2022-08-26T23:58:21.093Z,2.45
